createdAt,value
2023-03-14T00:00:11.798Z,96418.16
2023-03-14T00:03:14.865Z,96418.53
2023-03-14T00:06:20.385Z,96411.50
2023-03-14T00:09:23.512Z,96432.59
2023-03-14T00:12:26.824Z,96438.56
2023-03-14T00:15:29.969Z,96425.06
2023-03-14T00:18:33.896Z,96441.47
2023-03-14T00:21:38.387Z,96444.78
2023-03-14T00:24:41.613Z,96450.03
2023-03-14T00:27:44.728Z,96458.59
2023-03-14T00:30:50.156Z,96452.63
2023-03-14T00:33:55.337Z,96439.00
2023-03-14T00:37:00.151Z,96459.94
2023-03-14T00:40:06.698Z,96470.81
2023-03-14T00:43:09.791Z,96479.50
2023-03-14T00:46:13.591Z,96476.72
2023-03-14T00:49:16.789Z,96490.25
2023-03-14T00:52:21.672Z,96487.47
2023-03-14T00:55:24.803Z,96478.09
2023-03-14T00:58:27.873Z,96472.72
2023-03-14T01:01:31.106Z,96463.31
2023-03-14T01:04:35.634Z,96445.25
2023-03-14T01:07:40.503Z,96429.75
2023-03-14T01:10:44.882Z,96415.91
2023-03-14T01:13:48.920Z,96401.47
2023-03-14T01:16:52.074Z,96366.31
2023-03-14T01:19:56.880Z,96361.16
2023-03-14T01:23:01.556Z,96381.00
2023-03-14T01:26:04.771Z,96391.22
2023-03-14T01:29:07.907Z,96377.31
2023-03-14T01:32:13.857Z,96360.06
2023-03-14T01:35:17.173Z,96376.75
2023-03-14T01:38:21.789Z,96389.06
2023-03-14T01:41:27.395Z,96379.34
2023-03-14T01:44:51.753Z,96390.50
2023-03-14T01:47:54.998Z,96388.84
2023-03-14T01:50:58.649Z,96392.91
2023-03-14T01:54:10.402Z,96388.56
2023-03-14T01:57:17.771Z,96393.31
2023-03-14T02:00:22.880Z,96405.38
2023-03-14T02:03:28.956Z,96417.13
2023-03-14T02:06:38.002Z,96419.22
2023-03-14T02:09:43.479Z,96415.72
2023-03-14T02:12:52.705Z,96402.59
2023-03-14T02:16:16.664Z,96399.63
2023-03-14T02:19:49.746Z,96388.03
2023-03-14T02:23:12.067Z,96383.91
2023-03-14T02:26:22.577Z,96374.94
2023-03-14T02:29:27.725Z,96375.94
2023-03-14T02:32:33.887Z,96370.16
2023-03-14T02:35:41.350Z,96370.88
2023-03-14T02:38:52.568Z,96293.09
2023-03-14T02:41:56.501Z,96359.63
2023-03-14T02:45:23.121Z,96354.56
2023-03-14T02:48:30.120Z,96353.63
2023-03-14T02:51:34.536Z,96357.34
2023-03-14T02:54:37.758Z,96355.88
2023-03-14T02:57:41.045Z,96345.59
2023-03-14T03:00:46.109Z,96341.66
2023-03-14T03:03:49.702Z,96332.19
2023-03-14T03:06:52.892Z,96337.19
2023-03-14T03:09:56.160Z,96346.69
2023-03-14T03:12:59.881Z,96349.66
2023-03-14T03:16:06.443Z,96352.56
2023-03-14T03:19:11.397Z,96341.91
2023-03-14T03:22:14.628Z,96334.06
2023-03-14T03:25:18.257Z,96337.19
2023-03-14T03:28:22.960Z,96327.25
2023-03-14T03:31:29.133Z,96322.50
2023-03-14T03:34:32.334Z,96313.00
2023-03-14T03:37:36.972Z,96316.59
2023-03-14T03:40:42.718Z,96327.13
2023-03-14T03:43:46.541Z,96328.88
2023-03-14T03:46:53.940Z,96324.44
2023-03-14T03:49:57.074Z,96320.50
2023-03-14T03:53:00.339Z,96319.84
2023-03-14T03:56:03.537Z,96316.47
2023-03-14T03:59:06.779Z,96304.50
2023-03-14T04:02:11.289Z,96307.78
2023-03-14T04:05:14.861Z,96285.72
2023-03-14T04:08:24.348Z,96280.34
2023-03-14T04:11:27.922Z,96275.53
2023-03-14T04:14:41.922Z,96264.25
2023-03-14T04:17:52.280Z,96274.53
2023-03-14T04:20:56.522Z,96278.88
2023-03-14T04:24:05.250Z,96274.00
2023-03-14T04:27:10.858Z,96268.16
2023-03-14T04:34:19.242Z,96260.13
2023-03-14T04:37:29.796Z,96270.34
2023-03-14T04:40:33.096Z,96272.13
2023-03-14T04:43:40.904Z,96270.78
2023-03-14T04:46:47.404Z,96264.38
2023-03-14T04:49:52.263Z,96267.06
2023-03-14T04:52:55.876Z,96275.06
2023-03-14T04:55:59.061Z,96284.38
2023-03-14T04:59:09.228Z,96277.56
2023-03-14T05:02:15.025Z,96269.41
2023-03-14T05:05:39.847Z,96273.03
2023-03-14T05:08:42.980Z,96282.13
2023-03-14T05:12:06.867Z,96282.13
2023-03-14T05:15:18.421Z,96284.50
2023-03-14T05:18:40.069Z,96248.56
2023-03-14T05:22:02.514Z,96265.00
2023-03-14T05:25:24.402Z,96271.09
2023-03-14T05:28:50.375Z,96259.72
2023-03-14T05:32:01.518Z,96256.88
2023-03-14T05:35:16.886Z,96253.44
2023-03-14T05:38:40.150Z,96244.88
2023-03-14T05:42:15.172Z,96240.16
2023-03-14T05:45:34.472Z,96231.78
2023-03-14T05:49:02.103Z,96230.69
2023-03-14T05:52:20.370Z,96232.91
2023-03-14T05:55:47.843Z,96227.97
2023-03-14T05:59:02.634Z,96229.22
2023-03-14T06:02:20.965Z,96233.38
2023-03-14T06:05:33.902Z,96224.47
2023-03-14T06:08:38.855Z,96227.38
2023-03-14T06:11:44.410Z,96232.53
2023-03-14T06:14:49.006Z,96225.69
2023-03-14T06:17:52.375Z,96231.41
2023-03-14T06:20:56.366Z,96227.19
2023-03-14T06:24:02.796Z,96224.72
2023-03-14T06:27:10.037Z,96232.97
2023-03-14T06:30:14.027Z,96212.09
2023-03-14T06:33:17.178Z,96221.53
2023-03-14T06:36:20.618Z,96223.31
2023-03-14T06:39:25.042Z,96225.81
2023-03-14T06:42:38.752Z,96225.38
2023-03-14T06:45:41.884Z,96212.31
2023-03-14T06:48:45.242Z,96221.28
2023-03-14T06:51:49.292Z,96212.97
2023-03-14T06:54:52.485Z,96224.19
2023-03-14T06:57:59.829Z,96229.78
2023-03-14T07:01:03.665Z,96238.97
2023-03-14T07:04:13.209Z,96234.13
2023-03-14T07:07:21.179Z,96179.19
2023-03-14T07:10:24.415Z,96237.22
2023-03-14T07:13:29.385Z,96236.13
2023-03-14T07:16:37.915Z,96238.59
2023-03-14T07:19:41.806Z,96241.59
2023-03-14T07:22:48.821Z,96248.41
2023-03-14T07:25:52.688Z,96244.41
2023-03-14T07:28:58.873Z,96243.75
2023-03-14T07:32:02.158Z,96247.97
2023-03-14T07:35:06.513Z,96249.84
2023-03-14T07:38:12.617Z,96248.63
2023-03-14T07:41:28.950Z,96241.50
2023-03-14T07:44:51.874Z,96243.69
2023-03-14T07:47:58.297Z,96237.47
2023-03-14T07:51:01.625Z,96239.84
2023-03-14T07:54:04.848Z,96234.59
2023-03-14T07:57:08.095Z,96242.41
2023-03-14T08:00:16.029Z,96238.28
2023-03-14T08:03:19.220Z,96227.22
2023-03-14T08:06:22.312Z,96240.34
2023-03-14T08:09:25.542Z,96210.50
2023-03-14T08:12:28.668Z,96210.97
2023-03-14T08:15:33.199Z,96212.22
2023-03-14T08:18:36.270Z,96207.63
2023-03-14T08:21:39.460Z,96183.34
2023-03-14T08:24:42.903Z,96183.50
2023-03-14T08:27:46.368Z,96178.69
2023-03-14T08:30:51.094Z,96175.25
2023-03-14T08:33:54.271Z,96173.50
2023-03-14T08:36:57.782Z,96170.69
2023-03-14T08:40:01.029Z,96157.03
2023-03-14T08:43:04.683Z,96163.41
2023-03-14T08:46:09.214Z,96156.47
2023-03-14T08:49:12.394Z,96160.00
2023-03-14T08:52:17.190Z,96151.22
2023-03-14T08:55:20.422Z,96148.63
2023-03-14T08:58:24.625Z,96145.81
2023-03-14T09:01:29.320Z,96157.94
2023-03-14T09:04:33.385Z,96132.16
2023-03-14T09:07:36.597Z,96152.38
2023-03-14T09:10:40.369Z,96156.03
2023-03-14T09:13:43.914Z,96160.41
2023-03-14T09:16:48.420Z,96148.53
2023-03-14T09:19:51.582Z,96153.81
2023-03-14T09:22:54.831Z,96153.09
2023-03-14T09:25:58.063Z,96148.75
2023-03-14T09:29:01.305Z,96137.69
2023-03-14T09:32:06.066Z,96140.38
2023-03-14T09:35:10.766Z,96132.44
2023-03-14T09:38:14.381Z,96134.50
2023-03-14T09:41:20.817Z,96133.06
2023-03-14T09:44:29.084Z,96125.50
2023-03-14T09:47:36.685Z,96127.78
2023-03-14T09:50:44.953Z,96081.53
2023-03-14T09:53:50.480Z,96122.41
2023-03-14T09:56:53.738Z,96134.97
2023-03-14T10:00:06.010Z,96140.66
2023-03-14T10:03:26.159Z,96137.69
2023-03-14T10:06:31.850Z,96142.50
2023-03-14T10:09:36.708Z,96134.41
2023-03-14T10:12:40.921Z,96138.97
2023-03-14T10:15:49.825Z,96111.69
2023-03-14T10:18:54.283Z,96123.69
2023-03-14T10:21:57.786Z,96115.31
2023-03-14T10:25:03.819Z,96109.28
2023-03-14T10:28:07.936Z,96112.38
2023-03-14T10:34:24.579Z,96102.53
2023-03-14T10:37:29.789Z,96109.91
2023-03-14T10:40:35.376Z,96090.13
2023-03-14T10:43:39.881Z,96099.75
2023-03-14T10:46:43.485Z,96092.59
2023-03-14T10:50:25.836Z,96103.22
2023-03-14T10:53:29.085Z,96099.59
2023-03-14T10:56:37.250Z,96100.94
2023-03-14T10:59:43.636Z,96108.25
2023-03-14T11:03:01.088Z,96100.03
2023-03-14T11:06:10.128Z,96114.16
2023-03-14T11:09:20.607Z,96117.00
2023-03-14T11:12:41.497Z,96131.53
2023-03-14T11:15:56.051Z,96130.25
2023-03-14T11:19:30.015Z,96136.00
2023-03-14T11:22:40.289Z,96136.28
2023-03-14T11:25:53.570Z,96150.03
2023-03-14T11:29:00.812Z,96173.34
2023-03-14T11:32:11.217Z,96166.31
2023-03-14T11:35:27.146Z,96178.44
2023-03-14T11:38:39.521Z,96176.44
2023-03-14T11:41:45.688Z,96163.44
2023-03-14T11:44:51.126Z,96150.97
2023-03-14T11:48:01.276Z,96133.97
2023-03-14T11:51:10.460Z,96103.94
2023-03-14T11:54:22.580Z,96099.31
2023-03-14T11:57:26.058Z,96095.69
2023-03-14T12:00:30.752Z,96087.91
2023-03-14T12:03:40.067Z,96077.72
2023-03-14T12:06:49.090Z,96079.78
2023-03-14T12:09:56.087Z,96075.22
2023-03-14T12:13:00.161Z,96070.81
2023-03-14T12:16:09.497Z,96072.53
2023-03-14T12:19:27.632Z,96076.78
2023-03-14T12:22:33.425Z,96067.16
2023-03-14T12:25:38.265Z,96064.69
2023-03-14T12:28:45.414Z,96082.97
2023-03-14T12:31:49.910Z,96070.53
2023-03-14T12:34:53.620Z,96072.59
2023-03-14T12:37:59.852Z,96070.81
2023-03-14T12:41:15.291Z,96054.13
2023-03-14T12:44:41.772Z,96063.25
2023-03-14T12:47:56.838Z,96053.25
2023-03-14T12:51:05.587Z,96058.06
2023-03-14T12:54:31.236Z,96054.59
2023-03-14T12:57:42.310Z,96071.16
2023-03-14T13:00:57.947Z,96115.66
2023-03-14T13:04:09.363Z,96174.78
2023-03-14T13:07:14.368Z,96184.88
2023-03-14T13:10:21.404Z,96212.28
2023-03-14T13:13:27.802Z,96194.22
2023-03-14T13:16:31.803Z,96249.84
2023-03-14T13:19:35.844Z,96252.94
2023-03-14T13:22:39.731Z,96210.03
2023-03-14T13:25:43.249Z,96206.38
2023-03-14T13:28:48.181Z,96240.50
2023-03-14T13:31:53.187Z,96273.59
2023-03-14T13:34:58.337Z,96243.22
2023-03-14T13:38:11.487Z,96223.13
2023-03-14T13:41:15.575Z,96207.25
2023-03-14T13:44:26.569Z,96195.94
2023-03-14T13:47:30.658Z,96211.78
2023-03-14T13:50:33.840Z,96213.56
2023-03-14T13:53:45.624Z,96213.03
2023-03-14T13:56:49.860Z,96213.41
2023-03-14T14:00:09.001Z,96234.59
2023-03-14T14:03:13.380Z,96229.44
2023-03-14T14:06:30.742Z,96228.50
2023-03-14T14:09:40.907Z,96235.06
2023-03-14T14:12:51.129Z,96259.50
2023-03-14T14:15:57.026Z,96260.22
2023-03-14T14:19:03.288Z,96276.00
2023-03-14T14:22:07.730Z,96293.69
2023-03-14T14:25:15.619Z,96261.53
2023-03-14T14:28:25.114Z,96310.19
2023-03-14T14:31:29.687Z,96325.06
2023-03-14T14:34:41.896Z,96315.75
2023-03-14T14:37:46.663Z,96332.09
2023-03-14T14:40:51.954Z,96367.19
2023-03-14T14:43:56.140Z,96390.47
2023-03-14T14:47:00.957Z,96464.53
2023-03-14T14:50:06.984Z,96424.53
2023-03-14T14:53:24.524Z,96450.44
2023-03-14T14:56:30.012Z,96493.50
2023-03-14T14:59:34.794Z,96485.91
2023-03-14T15:02:46.014Z,96522.47
2023-03-14T15:05:49.271Z,96549.88
2023-03-14T15:08:52.345Z,96550.22
2023-03-14T15:11:55.492Z,96577.03
2023-03-14T15:14:58.767Z,96592.75
2023-03-14T15:18:15.182Z,96583.13
2023-03-14T15:21:18.350Z,96566.19
2023-03-14T15:24:21.732Z,96561.88
2023-03-14T15:27:26.933Z,96582.06
2023-03-14T15:30:30.176Z,96571.75
2023-03-14T15:33:34.844Z,96580.53
2023-03-14T15:36:39.362Z,96574.03
2023-03-14T15:39:42.593Z,96567.56
2023-03-14T15:42:46.006Z,96575.69
2023-03-14T15:45:50.719Z,96580.47
2023-03-14T15:48:55.374Z,96576.09
2023-03-14T15:51:58.658Z,96580.72
2023-03-14T15:55:02.035Z,96585.69
2023-03-14T15:58:05.492Z,96603.53
2023-03-14T16:01:10.607Z,96616.66
2023-03-14T16:04:15.260Z,96614.81
2023-03-14T16:07:18.437Z,96607.84
2023-03-14T16:10:21.802Z,96615.91
2023-03-14T16:13:24.927Z,96626.94
2023-03-14T16:16:28.391Z,96635.50
2023-03-14T16:19:33.608Z,96635.19
2023-03-14T16:22:36.973Z,96643.03
2023-03-14T16:25:40.250Z,96653.31
2023-03-14T16:28:44.391Z,96662.81
2023-03-14T16:34:18.707Z,96675.63
2023-03-14T16:37:22.340Z,96677.28
2023-03-14T16:40:25.446Z,96696.81
2023-03-14T16:43:29.166Z,96703.72
2023-03-14T16:46:33.306Z,96703.72
2023-03-14T16:49:38.146Z,96709.00
2023-03-14T16:52:41.231Z,96716.81
2023-03-14T16:55:45.169Z,96727.97
2023-03-14T16:58:48.457Z,96728.88
2023-03-14T17:01:51.853Z,96728.78
2023-03-14T17:04:56.421Z,96740.19
2023-03-14T17:08:00.130Z,96746.72
2023-03-14T17:11:04.029Z,96749.88
2023-03-14T17:14:07.370Z,96759.69
2023-03-14T17:17:10.658Z,96748.78
2023-03-14T17:20:15.334Z,96766.16
2023-03-14T17:23:18.756Z,96775.63
2023-03-14T17:26:22.272Z,96785.91
2023-03-14T17:29:25.518Z,96805.84
2023-03-14T17:32:29.222Z,96813.97
2023-03-14T17:35:34.223Z,96819.97
2023-03-14T17:38:37.929Z,96823.38
2023-03-14T17:41:41.081Z,96839.22
2023-03-14T17:44:44.400Z,96851.00
2023-03-14T17:47:48.003Z,96853.66
2023-03-14T17:50:53.055Z,96870.25
2023-03-14T17:53:56.373Z,96872.97
2023-03-14T17:56:59.886Z,96877.75
2023-03-14T18:00:04.748Z,96905.06
2023-03-14T18:03:10.732Z,96915.38
2023-03-14T18:06:17.252Z,96926.50
2023-03-14T18:09:21.828Z,96930.41
2023-03-14T18:12:24.977Z,96939.75
2023-03-14T18:15:28.174Z,96947.25
2023-03-14T18:18:31.744Z,96974.53
2023-03-14T18:21:36.397Z,96977.38
2023-03-14T18:24:39.722Z,96977.38
2023-03-14T18:27:42.976Z,96980.72
2023-03-14T18:30:51.989Z,96980.53
2023-03-14T18:33:57.760Z,96984.09
2023-03-14T18:37:02.946Z,96991.66
2023-03-14T18:40:10.311Z,97007.34
2023-03-14T18:43:13.467Z,97007.34
2023-03-14T18:46:17.235Z,97028.16
2023-03-14T18:49:21.627Z,97036.66
2023-03-14T18:52:26.211Z,97046.16
2023-03-14T18:55:30.146Z,97048.47
2023-03-14T18:58:33.832Z,97057.16
2023-03-14T19:01:38.073Z,97062.22
2023-03-14T19:04:41.276Z,97069.03
2023-03-14T19:07:45.806Z,97078.53
2023-03-14T19:10:48.989Z,97088.16
2023-03-14T19:13:52.622Z,97088.00
2023-03-14T19:16:55.832Z,97106.56
2023-03-14T19:19:59.047Z,97103.44
2023-03-14T19:23:04.102Z,97115.50
2023-03-14T19:26:07.696Z,97120.00
2023-03-14T19:29:11.552Z,97125.34
2023-03-14T19:32:16.954Z,97122.41
2023-03-14T19:35:20.513Z,97141.75
2023-03-14T19:38:25.097Z,97140.94
2023-03-14T19:41:28.662Z,97135.06
2023-03-14T19:44:31.942Z,97145.16
2023-03-14T19:47:35.233Z,97152.09
2023-03-14T19:50:39.552Z,97147.13
2023-03-14T19:53:44.784Z,97149.47
2023-03-14T19:56:49.192Z,97146.56
2023-03-14T19:59:52.348Z,97141.78
2023-03-14T20:02:55.561Z,97161.91
2023-03-14T20:05:58.775Z,97163.25
2023-03-14T20:09:05.683Z,97153.13
2023-03-14T20:12:09.749Z,97160.66
2023-03-14T20:15:18.370Z,97163.38
2023-03-14T20:18:23.217Z,97166.63
2023-03-14T20:21:27.313Z,97167.56
2023-03-14T20:24:33.172Z,97177.06
2023-03-14T20:27:36.844Z,97185.66
2023-03-14T20:30:40.048Z,97190.97
2023-03-14T20:33:43.555Z,97200.72
2023-03-14T20:36:52.835Z,97187.41
2023-03-14T20:39:57.436Z,97212.44
2023-03-14T20:43:00.577Z,97215.75
2023-03-14T20:46:04.849Z,97216.91
2023-03-14T20:49:08.171Z,97209.56
2023-03-14T20:52:11.907Z,97219.22
2023-03-14T20:55:16.657Z,97215.16
2023-03-14T20:58:20.371Z,97214.81
2023-03-14T21:01:23.906Z,97226.97
2023-03-14T21:04:27.104Z,97230.44
2023-03-14T21:07:32.876Z,97233.56
2023-03-14T21:10:37.376Z,97252.06
2023-03-14T21:13:40.554Z,97255.19
2023-03-14T21:16:43.766Z,97280.84
2023-03-14T21:19:46.976Z,97292.22
2023-03-14T21:22:50.116Z,97302.13
2023-03-14T21:25:55.761Z,97310.66
2023-03-14T21:28:59.119Z,97316.53
2023-03-14T21:32:02.793Z,97313.22
2023-03-14T21:35:06.486Z,97324.50
2023-03-14T21:38:09.625Z,97324.47
2023-03-14T21:41:14.100Z,97325.66
2023-03-14T21:44:19.029Z,97346.38
2023-03-14T21:47:23.479Z,97345.25
2023-03-14T21:50:27.534Z,97363.59
2023-03-14T21:53:30.626Z,97362.97
2023-03-14T21:56:35.113Z,97376.94
2023-03-14T21:59:39.210Z,97384.47
2023-03-14T22:02:49.677Z,97385.91
2023-03-14T22:05:57.035Z,97393.03
2023-03-14T22:09:00.492Z,97394.81
2023-03-14T22:12:05.582Z,97404.94
2023-03-14T22:15:11.073Z,97402.72
2023-03-14T22:18:14.283Z,97400.69
2023-03-14T22:21:17.458Z,97401.09
2023-03-14T22:24:20.678Z,97391.19
2023-03-14T22:27:25.271Z,97383.84
2023-03-14T22:34:18.656Z,97384.63
2023-03-14T22:37:23.257Z,97378.16
2023-03-14T22:40:26.623Z,97368.06
2023-03-14T22:43:31.090Z,97381.06
2023-03-14T22:46:34.404Z,97387.38
2023-03-14T22:49:38.914Z,97404.22
2023-03-14T22:52:42.094Z,97417.34
2023-03-14T22:55:45.240Z,97429.38
2023-03-14T22:58:48.622Z,97437.81
2023-03-14T23:01:51.802Z,97443.53
2023-03-14T23:04:56.288Z,97442.59
2023-03-14T23:07:59.509Z,97426.06
2023-03-14T23:11:04.511Z,97443.38
2023-03-14T23:14:08.009Z,97439.78
2023-03-14T23:17:11.402Z,97439.47
2023-03-14T23:20:16.177Z,97448.66
2023-03-14T23:23:25.650Z,97455.53
2023-03-14T23:26:30.007Z,97464.84
2023-03-14T23:29:35.232Z,97476.22
2023-03-14T23:32:38.547Z,97489.19
2023-03-14T23:35:43.042Z,97493.19
2023-03-14T23:38:47.150Z,97487.09
2023-03-14T23:41:50.576Z,97485.75
2023-03-14T23:44:54.563Z,97484.84
2023-03-14T23:47:57.900Z,97477.78
2023-03-14T23:51:06.776Z,97462.22
2023-03-14T23:54:09.891Z,97463.22
2023-03-14T23:57:13.318Z,97459.41
